Time;durP1;ratioP1;P1;durP2;ratioP2;P2;SDS_P1;SDS_P2;PMS_P1;PMS_P2;Temp;Humidity;BMP_temperature;BMP_pressure;BME280_temperature;BME280_humidity;BME280_pressure;Samples;Min_cycle;Max_cycle;Signal;HPM_P1;HPM_P2
2022/01/16 00:04:14;;;;;;;;;;;;;;;-3.04;88.57;96901.13;10394404;28;96970;-77
2022/01/16 00:09:16;;;;;;;;;;;;;;;-3.02;88.60;96878.91;10398765;28;96895;-72
2022/01/16 00:14:20;;;;;;;;;;;;;;;-3.16;89.67;96887.84;10402558;28;96809;-75
2022/01/16 00:19:23;;;;;;;;;;;;;;;-3.01;89.94;96881.41;10394805;28;97036;-74
2022/01/16 00:24:25;;;;;;;;;;;;;;;-3.05;88.47;96889.22;10395966;28;97028;-75
2022/01/16 00:29:31;;;;;;;;;;;;;;;-2.90;88.82;96870.00;10385067;28;96913;-74
2022/01/16 00:34:34;;;;;;;;;;;;;;;-2.97;88.76;96866.81;10380145;28;96929;-74
2022/01/16 00:39:36;;;;;;;;;;;;;;;-3.11;88.55;96890.25;10387362;28;96868;-74
2022/01/16 00:44:41;;;;;;;;;;;;;;;-3.22;88.28;96902.53;10388237;28;96797;-74
2022/01/16 00:49:44;;;;;;;;;;;;;;;-3.21;88.60;96893.97;10391948;28;98241;-74
2022/01/16 00:54:46;;;;;;;;;;;;;;;-3.20;89.87;96898.19;10406777;28;96926;-75
2022/01/16 00:59:51;;;;;;;;;;;;;;;-3.31;88.78;96920.69;10410030;28;96961;-74
2022/01/16 01:04:54;;;;;;;;;;;;;;;-3.29;89.64;96881.44;10396482;28;96941;-74
2022/01/16 01:09:57;;;;;;;;;;;;;;;-3.40;88.95;96848.56;10395547;28;96948;-74
2022/01/16 01:15:07;;;;;;;;;;;;;;;-3.52;89.21;96848.94;10410801;28;96766;-74
2022/01/16 01:20:11;;;;;;;;;;;;;;;-3.65;89.66;96868.91;10396127;28;101863;-74
2022/01/16 01:25:14;;;;;;;;;;;;;;;-3.77;90.32;96908.41;10407883;28;96919;-74
2022/01/16 01:30:20;;;;;;;;;;;;;;;-3.64;89.04;96920.81;10409895;28;96806;-74
2022/01/16 01:35:23;;;;;;;;;;;;;;;-3.70;89.91;96915.84;10397088;28;97071;-74
2022/01/16 01:40:26;;;;;;;;;;;;;;;-3.74;90.08;96912.56;10395110;28;98158;-74
2022/01/16 01:51:05;;;;;;;;;;;;;;;-3.98;89.36;96943.00;10404654;28;97034;-74
2022/01/16 01:56:09;;;;;;;;;;;;;;;-3.87;89.57;96942.72;10406905;28;96922;-74
2022/01/16 02:01:14;;;;;;;;;;;;;;;-3.73;89.48;96968.69;10395334;28;96955;-74
2022/01/16 02:06:18;;;;;;;;;;;;;;;-3.64;88.84;96952.28;10389463;28;97199;-74
2022/01/16 02:11:23;;;;;;;;;;;;;;;-3.80;89.73;96974.84;10393007;28;96825;-74
2022/01/16 02:32:47;;;;;;;;;;;;;;;-4.00;89.05;96959.22;10393347;28;97967;-74
2022/01/16 02:37:50;;;;;;;;;;;;;;;-3.92;89.67;96957.31;10394419;28;96955;-74
2022/01/16 02:42:54;;;;;;;;;;;;;;;-3.88;88.99;96950.41;10392952;28;97065;-74
2022/01/16 02:47:57;;;;;;;;;;;;;;;-4.01;88.53;96926.94;10388184;28;97292;-74
2022/01/16 02:53:00;;;;;;;;;;;;;;;-4.06;88.49;96929.63;10393285;28;96769;-74
2022/01/16 02:58:04;;;;;;;;;;;;;;;-4.05;88.48;96935.56;10391612;28;96721;-75
2022/01/16 03:03:07;;;;;;;;;;;;;;;-4.19;88.72;96934.22;10387021;28;97913;-75
2022/01/16 03:08:10;;;;;;;;;;;;;;;-4.51;88.66;96946.06;10393884;28;97676;-74
2022/01/16 03:13:15;;;;;;;;;;;;;;;-4.66;89.73;96923.50;10392999;28;98872;-74
2022/01/16 03:23:38;;;;;;;;;;;;;;;-4.62;88.82;96908.97;10390869;28;96800;-73
2022/01/16 03:28:42;;;;;;;;;;;;;;;-4.63;89.81;96908.13;10392270;28;96745;-74
2022/01/16 03:33:45;;;;;;;;;;;;;;;-4.71;88.44;96922.78;10390879;28;96991;-73
2022/01/16 03:38:47;;;;;;;;;;;;;;;-4.82;89.46;96906.94;10387617;28;97542;-73
2022/01/16 03:43:51;;;;;;;;;;;;;;;-4.82;89.59;96914.56;10392282;28;97063;-74
2022/01/16 03:48:54;;;;;;;;;;;;;;;-4.93;89.27;96910.56;10391136;28;96854;-73
2022/01/16 03:53:57;;;;;;;;;;;;;;;-4.80;89.65;96905.19;10386745;28;96927;-73
2022/01/16 03:59:01;;;;;;;;;;;;;;;-4.81;88.75;96934.09;10391649;28;96726;-74
2022/01/16 04:04:04;;;;;;;;;;;;;;;-4.73;89.52;96944.94;10391397;28;98267;-74
2022/01/16 04:09:07;;;;;;;;;;;;;;;-4.55;88.67;96946.22;10384566;28;97007;-77
2022/01/16 04:14:16;;;;;;;;;;;;;;;-4.58;89.60;96952.22;10391384;28;96795;-73
2022/01/16 04:19:18;;;;;;;;;;;;;;;-4.53;89.11;96950.38;10391005;28;96847;-73
2022/01/16 04:24:21;;;;;;;;;;;;;;;-4.53;88.69;96950.38;10385798;28;96727;-73
2022/01/16 04:29:25;;;;;;;;;;;;;;;-4.64;88.62;96947.28;10389574;28;97767;-75
2022/01/16 04:34:28;;;;;;;;;;;;;;;-4.58;88.64;96947.09;10391329;28;98010;-74
2022/01/16 04:39:33;;;;;;;;;;;;;;;-4.66;88.47;96959.19;10386752;28;96944;-74
2022/01/16 04:44:37;;;;;;;;;;;;;;;-4.68;88.14;96941.41;10384121;28;96765;-73
2022/01/16 04:49:39;;;;;;;;;;;;;;;-4.83;88.73;96951.13;10390478;28;96733;-74
2022/01/16 04:54:42;;;;;;;;;;;;;;;-4.80;89.16;96951.06;10387643;28;96682;-73
2022/01/16 04:59:46;;;;;;;;;;;;;;;-5.04;88.29;96958.44;10386976;28;100666;-73
2022/01/16 05:04:48;;;;;;;;;;;;;;;-4.91;88.87;96959.78;10390539;28;98051;-74
2022/01/16 05:09:52;;;;;;;;;;;;;;;-4.84;89.18;96959.66;10388844;28;96929;-74
2022/01/16 05:20:16;;;;;;;;;;;;;;;-4.82;89.10;96973.19;10385262;28;96907;-73
2022/01/16 05:25:19;;;;;;;;;;;;;;;-4.89;89.01;96983.53;10395784;28;96857;-74
2022/01/16 05:30:22;;;;;;;;;;;;;;;-4.90;88.85;96981.88;10391397;28;96777;-74
2022/01/16 05:35:25;;;;;;;;;;;;;;;-4.88;88.24;96995.41;10395495;28;97598;-75
2022/01/16 05:40:28;;;;;;;;;;;;;;;-5.00;88.55;97000.81;10395993;28;98907;-73
2022/01/16 05:45:32;;;;;;;;;;;;;;;-5.12;88.65;96996.00;10392198;28;96908;-73
2022/01/16 05:50:34;;;;;;;;;;;;;;;-5.17;88.29;97008.00;10401351;28;96878;-73
2022/01/16 05:55:37;;;;;;;;;;;;;;;-5.08;88.69;97013.69;10396236;28;96860;-74
2022/01/16 06:00:41;;;;;;;;;;;;;;;-5.02;88.41;97025.50;10396814;28;96842;-73
2022/01/16 06:05:44;;;;;;;;;;;;;;;-5.08;88.15;97028.16;10391222;28;97936;-74
2022/01/16 06:10:46;;;;;;;;;;;;;;;-4.99;88.72;97040.69;10395077;28;97018;-74
2022/01/16 06:15:50;;;;;;;;;;;;;;;-5.08;88.31;97046.81;10392225;28;96858;-74
2022/01/16 06:20:53;;;;;;;;;;;;;;;-4.96;88.93;97025.34;10389816;28;96981;-73
2022/01/16 06:25:56;;;;;;;;;;;;;;;-4.85;88.82;97027.63;10395279;28;98465;-73
2022/01/16 06:31:02;;;;;;;;;;;;;;;-5.09;88.63;97050.25;10393784;28;96904;-74
2022/01/16 06:36:05;;;;;;;;;;;;;;;-5.13;88.07;97043.53;10370885;28;97038;-73
2022/01/16 06:41:08;;;;;;;;;;;;;;;-5.03;88.94;97067.13;10393642;28;96875;-73
2022/01/16 06:46:12;;;;;;;;;;;;;;;-5.25;88.50;97059.94;10394785;28;96895;-73
2022/01/16 06:51:18;;;;;;;;;;;;;;;-5.25;87.65;97067.56;10387503;28;97021;-75
2022/01/16 06:56:21;;;;;;;;;;;;;;;-5.48;87.58;97077.38;10393409;28;96921;-73
2022/01/16 07:01:25;;;;;;;;;;;;;;;-5.51;88.34;97090.16;10394097;28;96770;-73
2022/01/16 07:06:29;;;;;;;;;;;;;;;-5.55;88.42;97097.00;10388511;28;96994;-74
2022/01/16 07:11:31;;;;;;;;;;;;;;;-5.62;88.24;97114.09;10399144;28;97264;-73
2022/01/16 07:16:36;;;;;;;;;;;;;;;-5.69;88.75;97117.63;10392778;28;97011;-73
2022/01/16 07:21:39;;;;;;;;;;;;;;;-5.81;88.54;97105.13;10389772;28;96823;-75
2022/01/16 07:26:42;;;;;;;;;;;;;;;-5.84;88.42;97128.94;10389529;28;96746;-73
2022/01/16 07:31:46;;;;;;;;;;;;;;;-5.80;88.40;97111.91;10390908;28;96690;-73
2022/01/16 07:36:49;;;;;;;;;;;;;;;-5.75;87.92;97112.66;10389721;28;96877;-73
2022/01/16 07:41:51;;;;;;;;;;;;;;;-5.84;87.83;97117.88;10388241;28;97337;-73
2022/01/16 07:46:55;;;;;;;;;;;;;;;-5.82;86.88;97111.91;10390799;28;97059;-74
2022/01/16 07:51:58;;;;;;;;;;;;;;;-5.95;87.65;97117.25;10391381;28;96927;-73
2022/01/16 07:57:02;;;;;;;;;;;;;;;-6.00;87.20;97107.13;10385896;28;97114;-74
2022/01/16 08:02:07;;;;;;;;;;;;;;;-5.94;88.01;97111.28;10389842;28;99470;-73
2022/01/16 08:07:10;;;;;;;;;;;;;;;-5.98;87.78;97104.56;10391313;28;101807;-73
2022/01/16 08:12:15;;;;;;;;;;;;;;;-5.91;87.48;97111.22;10384628;28;103955;-73
2022/01/16 08:17:19;;;;;;;;;;;;;;;-5.95;87.43;97133.34;10387733;28;96899;-73
2022/01/16 08:22:22;;;;;;;;;;;;;;;-6.04;87.83;97129.25;10391179;28;97103;-74
2022/01/16 08:27:24;;;;;;;;;;;;;;;-5.89;88.05;97134.94;10386751;28;96908;-73
2022/01/16 08:32:28;;;;;;;;;;;;;;;-5.79;87.74;97130.53;10387642;28;96872;-74
2022/01/16 08:37:31;;;;;;;;;;;;;;;-5.66;87.65;97148.13;10390738;28;96974;-74
2022/01/16 08:42:35;;;;;;;;;;;;;;;-5.69;87.47;97152.44;10386174;28;97034;-73
2022/01/16 08:47:39;;;;;;;;;;;;;;;-5.55;87.83;97164.91;10387757;28;97305;-73
2022/01/16 08:52:42;;;;;;;;;;;;;;;-5.48;87.54;97171.56;10390706;28;96796;-74
2022/01/16 08:57:45;;;;;;;;;;;;;;;-5.39;87.59;97186.69;10392174;28;96743;-74
2022/01/16 09:02:49;;;;;;;;;;;;;;;-5.21;88.32;97200.81;10402665;28;97372;-74
2022/01/16 09:07:52;;;;;;;;;;;;;;;-5.06;88.74;97200.53;10398605;28;99749;-76
2022/01/16 09:12:55;;;;;;;;;;;;;;;-4.92;88.78;97204.47;10396021;28;96913;-74
2022/01/16 09:17:59;;;;;;;;;;;;;;;-4.81;89.02;97206.84;10391978;28;96928;-74
2022/01/16 09:23:02;;;;;;;;;;;;;;;-4.78;89.03;97214.41;10397200;28;96992;-74
2022/01/16 09:28:05;;;;;;;;;;;;;;;-4.71;87.78;97213.41;10396028;28;96766;-75
2022/01/16 09:33:09;;;;;;;;;;;;;;;-4.57;88.76;97214.00;10390306;28;96907;-78
2022/01/16 09:38:12;;;;;;;;;;;;;;;-4.51;87.66;97224.03;10396738;28;97135;-74
2022/01/16 09:43:15;;;;;;;;;;;;;;;-4.55;87.47;97222.44;10396220;28;96915;-74
2022/01/16 09:48:20;;;;;;;;;;;;;;;-4.57;88.11;97234.38;10389483;28;97033;-74
2022/01/16 09:53:23;;;;;;;;;;;;;;;-4.52;88.18;97236.81;10395911;28;96723;-75
2022/01/16 09:58:27;;;;;;;;;;;;;;;-4.43;87.36;97246.88;10395494;28;99851;-75
2022/01/16 10:03:39;;;;;;;;;;;;;;;-4.24;88.08;97247.31;10389729;28;97110;-75
2022/01/16 10:08:42;;;;;;;;;;;;;;;-4.01;88.04;97251.09;10401879;28;96758;-75
2022/01/16 10:13:56;;;;;;;;;;;;;;;-3.94;88.34;97250.06;10394778;28;96924;-75
2022/01/16 10:19:01;;;;;;;;;;;;;;;-3.75;89.36;97251.31;10394955;28;96713;-75
2022/01/16 10:24:16;;;;;;;;;;;;;;;-3.58;89.13;97248.38;10387829;28;97208;-75
2022/01/16 10:29:20;;;;;;;;;;;;;;;-3.53;87.82;97248.28;10390648;28;96775;-75
2022/01/16 10:34:26;;;;;;;;;;;;;;;-3.53;87.27;97240.63;10394668;28;96701;-75
2022/01/16 10:39:30;;;;;;;;;;;;;;;-3.48;87.51;97248.97;10389758;28;97216;-75
2022/01/16 10:44:34;;;;;;;;;;;;;;;-3.45;88.98;97245.53;10399542;28;96851;-75
2022/01/16 10:49:38;;;;;;;;;;;;;;;-3.28;88.09;97245.13;10393328;28;96740;-74
2022/01/16 10:54:41;;;;;;;;;;;;;;;-3.19;88.73;97247.44;10390440;28;96725;-75
2022/01/16 10:59:44;;;;;;;;;;;;;;;-3.12;88.45;97238.72;10390875;28;96810;-75
2022/01/16 11:04:49;;;;;;;;;;;;;;;-3.05;87.07;97226.63;10393668;28;96900;-76
2022/01/16 11:09:51;;;;;;;;;;;;;;;-3.05;87.05;97237.69;10391571;28;97722;-75
2022/01/16 11:14:54;;;;;;;;;;;;;;;-2.90;87.64;97225.41;10387456;27;96889;-75
2022/01/16 11:19:59;;;;;;;;;;;;;;;-2.85;86.77;97224.41;10392406;27;99536;-74
2022/01/16 11:25:23;;;;;;;;;;;;;;;-2.80;87.44;97231.94;10393079;28;97809;-75
2022/01/16 11:30:25;;;;;;;;;;;;;;;-2.69;86.88;97222.25;10375020;28;97118;-76
2022/01/16 11:35:30;;;;;;;;;;;;;;;-2.65;88.32;97221.28;10390970;28;97020;-75
2022/01/16 11:40:42;;;;;;;;;;;;;;;-2.67;88.11;97222.22;10393319;28;98208;-75
2022/01/16 11:45:45;;;;;;;;;;;;;;;-2.55;88.10;97211.63;10389189;28;96759;-75
2022/01/16 11:50:49;;;;;;;;;;;;;;;-2.43;87.42;97206.16;10388808;28;96885;-75
2022/01/16 11:55:52;;;;;;;;;;;;;;;-2.30;88.41;97211.78;10391262;28;97226;-75
2022/01/16 12:00:55;;;;;;;;;;;;;;;-2.08;87.13;97211.94;10389342;28;97075;-75
2022/01/16 12:06:13;;;;;;;;;;;;;;;-1.92;87.41;97214.88;10385551;28;96816;-75
2022/01/16 12:16:46;;;;;;;;;;;;;;;-1.76;87.88;97196.47;10439205;27;96691;-72
2022/01/16 12:21:52;;;;;;;;;;;;;;;-1.72;86.83;97193.78;10419673;27;96922;-72
2022/01/16 12:27:20;;;;;;;;;;;;;;;-1.53;87.13;97194.03;10419418;27;97666;-72
2022/01/16 12:32:38;;;;;;;;;;;;;;;-1.34;87.63;97178.03;10421486;27;96804;-72
2022/01/16 12:37:42;;;;;;;;;;;;;;;-1.24;87.51;97174.25;10421013;27;97326;-72
2022/01/16 12:42:45;;;;;;;;;;;;;;;-1.08;86.96;97175.41;10418688;27;96750;-72
2022/01/16 12:47:48;;;;;;;;;;;;;;;-0.85;87.04;97186.59;10419936;27;96879;-72
2022/01/16 12:52:52;;;;;;;;;;;;;;;-0.68;87.14;97182.56;10420274;27;97024;-72
2022/01/16 12:57:55;;;;;;;;;;;;;;;-0.54;86.74;97170.09;10419693;27;96895;-72
2022/01/16 13:03:01;;;;;;;;;;;;;;;-0.38;86.61;97171.19;10418051;27;96900;-72
2022/01/16 13:08:05;;;;;;;;;;;;;;;-0.21;86.54;97169.72;10420887;27;96793;-72
2022/01/16 13:13:10;;;;;;;;;;;;;;;-0.03;86.23;97165.59;10420076;27;96879;-72
2022/01/16 13:18:14;;;;;;;;;;;;;;;0.14;86.14;97162.38;10416327;27;97003;-72
2022/01/16 13:23:18;;;;;;;;;;;;;;;0.33;86.02;97158.16;10418053;27;97456;-72
2022/01/16 13:28:27;;;;;;;;;;;;;;;0.51;85.85;97151.44;10391767;28;97405;-72
2022/01/16 13:33:30;;;;;;;;;;;;;;;0.69;85.33;97143.84;10387371;27;97184;-72
2022/01/16 13:38:34;;;;;;;;;;;;;;;0.71;85.38;97145.47;10383513;28;97112;-73
2022/01/16 13:43:37;;;;;;;;;;;;;;;0.69;85.69;97143.84;10392195;28;96853;-72
2022/01/16 13:48:44;;;;;;;;;;;;;;;0.68;86.37;97134.47;10388107;28;97391;-74
2022/01/16 13:53:47;;;;;;;;;;;;;;;0.68;86.51;97140.44;10389758;27;99703;-72
2022/01/16 13:58:53;;;;;;;;;;;;;;;0.76;86.41;97129.84;10390703;27;96986;-72
2022/01/16 14:03:56;;;;;;;;;;;;;;;0.96;85.84;97137.50;10389227;28;96956;-73
2022/01/16 14:09:02;;;;;;;;;;;;;;;1.07;86.69;97143.94;10387689;28;96819;-73
2022/01/16 14:14:05;;;;;;;;;;;;;;;1.29;86.43;97129.22;10390677;28;96812;-73
2022/01/16 14:19:10;;;;;;;;;;;;;;;1.45;86.84;97126.81;10389510;28;96890;-73
2022/01/16 14:24:14;;;;;;;;;;;;;;;1.61;85.73;97128.66;10386570;28;97067;-73
2022/01/16 14:29:17;;;;;;;;;;;;;;;1.82;85.72;97142.31;10388765;28;96989;-73
2022/01/16 14:34:20;;;;;;;;;;;;;;;2.02;86.12;97139.59;10389179;28;96845;-73
2022/01/16 14:39:24;;;;;;;;;;;;;;;2.17;85.25;97132.88;10384086;28;97232;-73
2022/01/16 14:44:30;;;;;;;;;;;;;;;2.39;84.93;97142.16;10390127;28;98435;-73
2022/01/16 14:49:33;;;;;;;;;;;;;;;2.57;84.94;97133.50;10388807;28;97164;-73
2022/01/16 14:54:37;;;;;;;;;;;;;;;2.73;84.98;97130.16;10376794;28;96894;-73
2022/01/16 14:59:40;;;;;;;;;;;;;;;2.82;84.76;97142.59;10380170;28;96942;-73
2022/01/16 15:04:43;;;;;;;;;;;;;;;2.90;84.41;97148.22;10381245;28;97147;-73
2022/01/16 15:09:47;;;;;;;;;;;;;;;2.98;85.16;97151.25;10382974;28;99613;-73
2022/01/16 15:14:51;;;;;;;;;;;;;;;3.07;85.30;97155.94;10383917;28;100190;-73
2022/01/16 15:19:56;;;;;;;;;;;;;;;3.11;84.37;97160.94;10387582;28;97104;-73
2022/01/16 15:25:00;;;;;;;;;;;;;;;3.18;84.53;97146.78;10380132;28;98224;-73
2022/01/16 15:30:03;;;;;;;;;;;;;;;3.23;84.73;97142.22;10375221;28;96743;-74
2022/01/16 15:35:07;;;;;;;;;;;;;;;3.25;83.66;97148.13;10383898;28;97142;-73
2022/01/16 15:40:13;;;;;;;;;;;;;;;3.21;84.50;97156.97;10370335;28;98521;-73
2022/01/16 15:45:18;;;;;;;;;;;;;;;3.16;83.77;97164.94;10371930;28;96914;-73
2022/01/16 15:50:21;;;;;;;;;;;;;;;3.07;84.09;97166.25;10379854;28;96855;-73
2022/01/16 15:55:25;;;;;;;;;;;;;;;2.87;83.83;97181.91;10378359;28;97348;-74
2022/01/16 16:00:29;;;;;;;;;;;;;;;2.56;83.68;97186.00;10376929;28;97273;-73
2022/01/16 16:05:32;;;;;;;;;;;;;;;2.29;83.67;97199.34;10379609;28;101612;-73
2022/01/16 16:10:38;;;;;;;;;;;;;;;1.85;82.59;97210.00;10379365;28;97028;-73
2022/01/16 16:15:42;;;;;;;;;;;;;;;1.55;83.74;97201.88;10374018;28;96840;-73
2022/01/16 16:20:45;;;;;;;;;;;;;;;1.39;83.63;97227.47;10371792;28;98024;-73
2022/01/16 16:25:49;;;;;;;;;;;;;;;1.17;83.08;97220.69;10383378;28;100347;-73
2022/01/16 16:30:52;;;;;;;;;;;;;;;0.66;83.59;97232.25;10382174;28;98196;-73
2022/01/16 16:35:56;;;;;;;;;;;;;;;0.29;82.88;97241.44;10380834;27;96976;-73
2022/01/16 16:41:00;;;;;;;;;;;;;;;0.11;84.06;97247.28;10383571;28;98676;-73
2022/01/16 16:46:04;;;;;;;;;;;;;;;0.04;83.85;97247.50;10380777;28;97468;-74
2022/01/16 16:51:07;;;;;;;;;;;;;;;-0.10;83.62;97248.94;10374007;28;96969;-73
2022/01/16 16:56:11;;;;;;;;;;;;;;;-0.25;83.68;97243.47;10383261;28;97930;-73
2022/01/16 17:01:13;;;;;;;;;;;;;;;-0.41;83.40;97261.16;10388619;27;97130;-73
2022/01/16 17:06:16;;;;;;;;;;;;;;;-0.58;83.10;97266.03;10389360;28;96963;-73
2022/01/16 17:11:20;;;;;;;;;;;;;;;-0.76;83.49;97273.50;10391806;28;97122;-73
2022/01/16 17:16:23;;;;;;;;;;;;;;;-0.98;83.12;97282.81;10391663;28;96840;-73
2022/01/16 17:21:25;;;;;;;;;;;;;;;-1.26;83.58;97281.16;10388296;28;96732;-73
2022/01/16 17:26:30;;;;;;;;;;;;;;;-1.31;83.97;97288.16;10392882;28;96889;-73
2022/01/16 17:31:32;;;;;;;;;;;;;;;-1.39;83.31;97292.72;10392098;28;97259;-73
2022/01/16 17:36:35;;;;;;;;;;;;;;;-1.48;83.87;97302.34;10388077;28;97551;-73
2022/01/16 17:41:39;;;;;;;;;;;;;;;-1.62;84.01;97312.19;10392088;28;97427;-73
2022/01/16 17:46:42;;;;;;;;;;;;;;;-1.68;84.14;97327.75;10391807;28;96964;-73
2022/01/16 17:51:44;;;;;;;;;;;;;;;-1.76;83.12;97333.09;10389431;28;96828;-73
2022/01/16 17:56:48;;;;;;;;;;;;;;;-2.07;83.58;97338.28;10390185;28;97808;-73
2022/01/16 18:01:51;;;;;;;;;;;;;;;-2.17;84.78;97345.34;10390424;28;97846;-73
2022/01/16 18:06:55;;;;;;;;;;;;;;;-2.16;84.41;97354.72;10389505;28;96994;-73
2022/01/16 18:12:00;;;;;;;;;;;;;;;-2.17;84.36;97349.66;10387733;27;97071;-73
2022/01/16 18:17:03;;;;;;;;;;;;;;;-2.18;83.16;97363.31;10390883;27;98597;-73
2022/01/16 18:22:06;;;;;;;;;;;;;;;-2.24;83.45;97375.41;10390600;28;96843;-73
2022/01/16 18:27:10;;;;;;;;;;;;;;;-2.43;84.15;97382.72;10386115;28;96884;-73
2022/01/16 18:32:13;;;;;;;;;;;;;;;-2.50;83.08;97388.06;10390524;28;97216;-73
2022/01/16 18:37:16;;;;;;;;;;;;;;;-2.64;83.78;97399.47;10389702;28;96915;-73
2022/01/16 18:42:20;;;;;;;;;;;;;;;-2.61;84.68;97401.09;10385606;28;96819;-73
2022/01/16 18:47:23;;;;;;;;;;;;;;;-2.62;83.51;97402.81;10390534;28;98683;-73
2022/01/16 18:52:26;;;;;;;;;;;;;;;-2.60;83.39;97413.84;10389678;28;97048;-73
2022/01/16 18:57:30;;;;;;;;;;;;;;;-2.63;84.23;97411.41;10385262;28;97001;-73
2022/01/16 19:02:33;;;;;;;;;;;;;;;-2.66;83.10;97424.25;10390256;27;97088;-73
2022/01/16 19:07:35;;;;;;;;;;;;;;;-2.75;83.23;97428.75;10389350;28;97443;-73
2022/01/16 19:12:40;;;;;;;;;;;;;;;-2.80;84.31;97441.66;10385626;28;97266;-73
2022/01/16 19:17:43;;;;;;;;;;;;;;;-3.02;82.97;97444.69;10388206;28;96778;-73
2022/01/16 19:22:45;;;;;;;;;;;;;;;-3.10;84.73;97454.25;10387588;28;97941;-73
2022/01/16 19:27:50;;;;;;;;;;;;;;;-3.07;84.01;97461.84;10386318;27;96910;-73
2022/01/16 19:32:53;;;;;;;;;;;;;;;-3.07;83.29;97466.97;10386716;28;97398;-73
2022/01/16 19:37:56;;;;;;;;;;;;;;;-3.12;83.81;97473.88;10379773;27;96911;-73
2022/01/16 19:43:07;;;;;;;;;;;;;;;-3.29;83.58;97479.34;10367685;28;98916;-73
2022/01/16 19:48:12;;;;;;;;;;;;;;;-3.28;83.82;97477.66;10369465;28;98599;-74
2022/01/16 19:53:51;;;;;;;21.25;10.93;;;;;;;-3.23;84.14;97478.41;10400412;27;100174;-72
2022/01/16 19:58:59;;;;;;;21.73;12.53;;;;;;;-3.34;83.73;97496.50;10406000;27;97201;-72
2022/01/16 20:04:02;;;;;;;36.67;20.70;;;;;;;-3.45;84.48;97504.38;10414511;27;97014;-72
2022/01/16 20:09:06;;;;;;;25.90;14.40;;;;;;;-3.47;84.31;97515.53;10417910;27;96769;-72
2022/01/16 20:14:10;;;;;;;17.90;11.52;;;;;;;-3.50;84.05;97518.13;10391240;27;97971;-72
2022/01/16 20:19:13;;;;;;;23.73;13.38;;;;;;;-3.63;84.55;97517.53;10396335;27;97175;-73
2022/01/16 20:24:17;;;;;;;22.33;12.52;;;;;;;-3.73;84.85;97519.41;10419339;27;96990;-73
2022/01/16 20:29:20;;;;;;;24.70;13.02;;;;;;;-3.67;84.10;97519.31;10398013;27;96772;-72
2022/01/16 20:34:23;;;;;;;23.77;13.80;;;;;;;-3.62;84.01;97514.94;10402698;27;98022;-75
2022/01/16 20:39:28;;;;;;;20.30;12.10;;;;;;;-3.65;83.51;97522.69;10412923;27;97842;-72
2022/01/16 20:44:31;;;;;;;24.27;13.30;;;;;;;-3.68;84.33;97527.84;10398879;27;98107;-78
2022/01/16 20:49:34;;;;;;;22.63;13.35;;;;;;;-3.77;84.32;97522.91;10387275;27;98555;-72
2022/01/16 20:54:38;;;;;;;21.80;12.45;;;;;;;-3.82;83.25;97524.72;10379064;27;97020;-72
2022/01/16 20:59:42;;;;;;;;;;;;;;;-3.98;83.85;97522.44;10384691;27;97309;-74
2022/01/16 21:04:45;;;;;;;21.33;12.18;;;;;;;-4.23;84.87;97522.00;10384145;27;99064;-72
2022/01/16 21:09:50;;;;;;;22.42;12.40;;;;;;;-4.19;84.60;97520.22;10374147;28;98146;-74
2022/01/16 21:14:55;;;;;;;14.07;7.72;;;;;;;-4.12;85.11;97522.66;10363641;28;97029;-72
2022/01/16 21:19:58;;;;;;;;;;;;;;;-4.09;83.84;97526.03;10356754;28;96994;-72
2022/01/16 21:25:03;;;;;;;24.70;13.65;;;;;;;-4.12;84.66;97525.22;10364412;28;96800;-73
2022/01/16 21:30:07;;;;;;;24.73;13.60;;;;;;;-4.14;83.80;97538.84;10372122;28;98147;-74
2022/01/16 21:35:13;;;;;;;22.60;12.95;;;;;;;-4.18;83.43;97537.25;10367368;28;97068;-73
2022/01/16 21:40:17;;;;;;;;;;;;;;;-4.27;84.20;97540.78;10377820;28;101124;-72
2022/01/16 21:45:22;;;;;;;25.55;14.80;;;;;;;-4.26;84.76;97537.38;10379973;28;100886;-73
2022/01/16 21:50:25;;;;;;;27.67;14.50;;;;;;;-4.26;84.55;97544.16;10365915;28;96847;-72
2022/01/16 21:55:31;;;;;;;25.52;13.05;;;;;;;-4.40;84.18;97545.25;10366613;28;97171;-72
2022/01/16 22:00:34;;;;;;;35.85;17.58;;;;;;;-4.39;84.85;97541.81;10360482;28;97703;-72
2022/01/16 22:05:37;;;;;;;25.23;14.18;;;;;;;-4.40;84.45;97541.84;10361492;28;97348;-71
2022/01/16 22:10:41;;;;;;;26.23;14.60;;;;;;;-4.44;84.23;97530.00;10375664;28;98478;-71
2022/01/16 22:15:45;;;;;;;23.37;13.60;;;;;;;-4.45;84.95;97539.38;10346802;28;97087;-73
2022/01/16 22:20:48;;;;;;;23.38;13.07;;;;;;;-4.57;84.02;97542.97;10379711;27;97751;-76
2022/01/16 22:25:53;;;;;;;26.75;15.48;;;;;;;-4.55;84.82;97545.47;10376723;28;98328;-72
2022/01/16 22:30:56;;;;;;;23.70;13.32;;;;;;;-4.54;84.62;97555.66;10361291;28;97114;-72
2022/01/16 22:35:59;;;;;;;23.70;12.23;;;;;;;-4.51;84.16;97562.41;10345071;28;99145;-71
2022/01/16 22:41:04;;;;;;;26.33;13.90;;;;;;;-4.55;84.12;97564.16;10356845;28;98327;-71
2022/01/16 22:46:09;;;;;;;23.45;12.20;;;;;;;-4.59;84.91;97572.75;10345176;28;100224;-71
2022/01/16 22:51:13;;;;;;;26.33;12.98;;;;;;;-4.59;84.94;97584.63;10338465;28;101072;-71
2022/01/16 22:56:17;;;;;;;23.92;12.95;;;;;;;-4.64;84.00;97582.16;10349308;28;97597;-71
2022/01/16 23:01:20;;;;;;;33.83;19.37;;;;;;;-4.68;84.22;97585.59;10349047;28;98286;-72
2022/01/16 23:06:23;;;;;;;35.58;18.48;;;;;;;-4.67;84.86;97594.94;10362217;28;97663;-75
2022/01/16 23:11:28;;;;;;;33.70;17.20;;;;;;;-4.66;85.32;97606.81;10361093;28;96747;-73
2022/01/16 23:16:34;;;;;;;27.05;15.73;;;;;;;-4.67;84.92;97616.19;10351839;28;97630;-72
2022/01/16 23:21:38;;;;;;;34.78;16.92;;;;;;;-4.70;84.77;97615.38;10353860;28;97492;-72
2022/01/16 23:26:43;;;;;;;30.23;16.30;;;;;;;-4.75;84.36;97624.81;10362169;28;97007;-72
2022/01/16 23:31:46;;;;;;;30.67;15.40;;;;;;;-4.78;84.42;97622.28;10356701;28;97573;-72
2022/01/16 23:36:49;;;;;;;31.75;17.17;;;;;;;-4.79;84.75;97611.25;10361565;28;97219;-71
2022/01/16 23:41:54;;;;;;;36.78;18.52;;;;;;;-4.83;84.60;97621.50;10351339;28;98523;-72
2022/01/16 23:46:57;;;;;;;28.40;14.17;;;;;;;-4.97;85.54;97612.38;10348271;28;98337;-71
2022/01/16 23:52:00;;;;;;;24.70;11.23;;;;;;;-4.88;85.62;97614.75;10359058;28;96891;-72
2022/01/16 23:57:04;;;;;;;25.58;12.38;;;;;;;-4.75;85.38;97627.34;10357076;28;98620;-72
